Time;durP1;ratioP1;P1;durP2;ratioP2;P2;SDS_P1;SDS_P2;PMS_P1;PMS_P2;Temp;Humidity;BMP_temperature;BMP_pressure;BME280_temperature;BME280_humidity;BME280_pressure;Samples;Min_cycle;Max_cycle;Signal;HPM_P1;HPM_P2
2022/09/20 00:00:49;;;;;;;13.10;3.00;;;10.70;99.90;;;;;;5019652;28;20097;-91
2022/09/20 00:03:15;;;;;;;3.70;0.50;;;9.50;99.90;;;;;;5019224;28;20067;-90
2022/09/20 00:05:44;;;;;;;7.35;0.75;;;10.50;99.90;;;;;;4993007;28;20464;-91
2022/09/20 00:08:13;;;;;;;5.90;0.60;;;10.10;99.90;;;;;;5016366;28;20052;-91
2022/09/20 00:10:39;;;;;;;11.05;0.80;;;9.80;99.90;;;;;;5017018;28;20056;-91
2022/09/20 00:13:07;;;;;;;6.38;0.90;;;10.40;99.90;;;;;;5002776;28;20049;-90
2022/09/20 00:15:33;;;;;;;6.38;0.85;;;10.20;99.90;;;;;;5026215;28;20131;-90
2022/09/20 00:17:59;;;;;;;5.75;0.60;;;9.30;99.90;;;;;;5021407;28;20079;-92
2022/09/20 00:20:25;;;;;;;12.60;0.90;;;9.30;99.90;;;;;;4992561;28;20053;-92
2022/09/20 00:22:51;;;;;;;6.22;1.25;;;9.30;99.90;;;;;;5023914;28;20224;-92
2022/09/20 00:25:18;;;;;;;7.40;1.20;;;9.40;99.90;;;;;;5007875;28;20045;-93
2022/09/20 00:27:44;;;;;;;6.75;0.80;;;9.30;99.90;;;;;;5022483;28;20045;-92
2022/09/20 00:30:11;;;;;;;3.25;0.55;;;9.80;99.90;;;;;;4988977;28;20045;-92
2022/09/20 00:32:38;;;;;;;7.88;1.05;;;9.30;99.90;;;;;;5015785;28;20110;-92
2022/09/20 00:35:09;;;;;;;2.75;1.58;;;9.30;99.90;;;;;;4996716;28;20400;-91
2022/09/20 00:37:37;;;;;;;8.07;1.33;;;9.30;99.90;;;;;;4997937;28;20041;-92
2022/09/20 00:40:05;;;;;;;3.33;0.60;;;10.30;99.90;;;;;;5012610;28;20099;-92
2022/09/20 00:42:32;;;;;;;11.95;1.52;;;9.30;99.90;;;;;;5013237;28;20046;-91
2022/09/20 00:45:05;;;;;;;5.05;0.65;;;9.30;99.90;;;;;;5012368;28;20076;-91
2022/09/20 00:47:59;;;;;;;9.65;1.02;;;9.50;99.90;;;;;;5012482;28;20053;-92
2022/09/20 00:50:47;;;;;;;3.35;0.70;;;9.20;99.90;;;;;;5015657;28;20489;-92
2022/09/20 00:53:19;;;;;;;9.35;0.65;;;9.20;99.90;;;;;;5013953;28;20092;-91
2022/09/20 00:55:53;;;;;;;10.90;1.25;;;9.10;99.90;;;;;;5012627;28;20136;-92
2022/09/20 00:58:20;;;;;;;5.85;1.00;;;9.00;99.90;;;;;;5012786;28;20045;-92
2022/09/20 01:00:48;;;;;;;7.13;0.80;;;9.00;99.90;;;;;;4979770;28;20041;-92
2022/09/20 01:03:17;;;;;;;3.67;0.60;;;9.40;99.90;;;;;;5012771;28;20041;-92
2022/09/20 01:05:44;;;;;;;3.33;0.80;;;9.20;99.90;;;;;;4995164;28;20079;-92
2022/09/20 01:08:11;;;;;;;10.02;1.15;;;8.90;99.90;;;;;;5012011;28;20049;-92
2022/09/20 01:10:37;;;;;;;5.95;0.88;;;9.70;99.90;;;;;;4998846;28;20497;-92
2022/09/20 01:13:04;;;;;;;4.93;0.90;;;8.80;99.90;;;;;;5000538;28;20603;-94
2022/09/20 01:15:33;;;;;;;3.10;0.60;;;8.80;99.90;;;;;;5000327;28;20042;-92
2022/09/20 01:18:00;;;;;;;7.30;1.02;;;8.70;99.90;;;;;;5016380;28;20080;-92
2022/09/20 01:20:32;;;;;;;9.82;0.93;;;8.70;99.90;;;;;;5033679;28;20694;-92
2022/09/20 01:23:00;;;;;;;6.93;1.05;;;8.60;99.90;;;;;;5017050;28;20050;-92
2022/09/20 01:25:26;;;;;;;7.45;0.80;;;8.60;99.90;;;;;;5017254;28;20045;-92
2022/09/20 01:27:53;;;;;;;5.80;1.05;;;8.50;99.90;;;;;;5016044;28;20156;-92
2022/09/20 01:30:22;;;;;;;4.75;0.50;;;8.50;99.90;;;;;;4984688;28;20045;-93
2022/09/20 01:33:00;;;;;;;2.08;0.50;;;8.50;99.90;;;;;;5019956;28;20393;-96
2022/09/20 01:35:27;;;;;;;7.13;0.88;;;9.40;99.90;;;;;;5018925;28;20075;-89
2022/09/20 01:38:35;;;;;;;8.40;0.75;;;8.80;99.90;;;;;;5003224;28;20561;-96
2022/09/20 01:41:15;;;;;;;6.88;1.52;;;8.30;99.90;;;;;;5019221;28;20045;-95
2022/09/20 01:43:57;;;;;;;3.55;0.60;;;8.20;99.90;;;;;;5022569;28;20070;-92
2022/09/20 01:46:35;;;;;;;6.55;1.20;;;8.20;99.90;;;;;;5020339;28;20052;-93
2022/09/20 01:49:12;;;;;;;6.82;0.60;;;8.20;99.90;;;;;;5019999;28;20484;-93
2022/09/20 01:52:13;;;;;;;7.88;0.93;;;8.10;99.90;;;;;;5019923;28;20053;-89
2022/09/20 01:54:42;;;;;;;9.10;1.25;;;8.10;99.90;;;;;;4968736;28;20045;-88
2022/09/20 01:57:22;;;;;;;10.52;1.00;;;8.10;99.90;;;;;;5017854;28;20468;-89
2022/09/20 02:00:00;;;;;;;6.88;0.98;;;8.80;99.90;;;;;;5018263;28;20420;-89
2022/09/20 02:02:41;;;;;;;5.78;0.70;;;8.00;99.90;;;;;;5017962;28;20400;-90
2022/09/20 02:05:25;;;;;;;7.15;1.05;;;8.00;99.90;;;;;;5018559;28;20052;-89
2022/09/20 02:08:06;;;;;;;4.80;0.80;;;8.80;99.90;;;;;;5019010;28;20078;-89
2022/09/20 02:10:51;;;;;;;5.18;1.10;;;7.90;99.90;;;;;;5017280;28;20045;-89
2022/09/20 02:13:28;;;;;;;4.18;0.68;;;7.90;99.90;;;;;;5017350;28;20530;-89
2022/09/20 02:16:27;;;;;;;10.52;1.10;;;8.10;99.90;;;;;;5033762;28;20049;-89
2022/09/20 02:19:14;;;;;;;5.30;1.17;;;7.90;99.90;;;;;;5016865;28;20045;-89
2022/09/20 02:21:59;;;;;;;5.78;0.80;;;7.90;99.90;;;;;;5016778;28;20051;-89
2022/09/20 02:24:32;;;;;;;6.07;0.65;;;7.90;99.90;;;;;;5017180;28;20052;-89
2022/09/20 02:27:22;;;;;;;8.65;2.38;;;8.60;99.90;;;;;;5032753;28;20057;-89
2022/09/20 02:30:18;;;;;;;8.18;1.17;;;8.40;99.90;;;;;;5016687;28;20464;-89
2022/09/20 02:32:58;;;;;;;5.97;1.20;;;7.80;99.90;;;;;;4988705;28;20512;-89
2022/09/20 02:35:50;;;;;;;7.15;0.68;;;7.70;99.90;;;;;;5016161;28;20053;-88
2022/09/20 02:38:25;;;;;;;11.85;0.95;;;7.70;99.90;;;;;;5016393;28;20033;-88
2022/09/20 02:40:53;;;;;;;4.55;0.80;;;7.70;99.90;;;;;;5015614;28;20049;-88
2022/09/20 02:43:19;;;;;;;5.32;0.80;;;7.60;99.90;;;;;;5016233;28;20041;-89
2022/09/20 02:45:58;;;;;;;4.20;1.00;;;7.70;99.90;;;;;;5032596;28;20037;-88
2022/09/20 02:48:33;;;;;;;9.77;1.42;;;7.70;99.90;;;;;;5016035;28;20095;-88
2022/09/20 02:51:35;;;;;;;4.10;0.70;;;8.20;99.90;;;;;;5033213;28;20086;-89
2022/09/20 02:54:25;;;;;;;4.25;0.77;;;7.70;99.90;;;;;;4983092;28;20053;-89
2022/09/20 02:57:28;;;;;;;4.20;0.95;;;7.60;99.90;;;;;;5015707;28;20093;-88
2022/09/20 03:00:25;;;;;;;2.33;0.63;;;7.60;99.90;;;;;;5032726;28;20045;-88
2022/09/20 03:03:30;;;;;;;5.80;0.95;;;7.50;99.90;;;;;;5015502;28;20053;-88
2022/09/20 03:06:24;;;;;;;6.40;0.93;;;7.50;99.90;;;;;;4983712;28;20407;-88
2022/09/20 03:08:57;;;;;;;3.20;0.75;;;7.50;99.90;;;;;;5016575;28;20044;-88
2022/09/20 03:11:29;;;;;;;6.78;1.00;;;8.30;99.90;;;;;;5015737;28;20045;-88
2022/09/20 03:14:17;;;;;;;5.55;0.50;;;7.40;99.90;;;;;;5031759;28;20048;-88
2022/09/20 03:17:03;;;;;;;9.32;0.93;;;7.40;99.90;;;;;;5016131;28;20138;-88
2022/09/20 03:19:53;;;;;;;6.50;1.00;;;7.30;99.90;;;;;;5014999;28;20048;-87
2022/09/20 03:22:53;;;;;;;5.78;1.00;;;7.30;99.90;;;;;;5032429;28;20106;-88
2022/09/20 03:25:54;;;;;;;4.32;0.73;;;7.20;99.90;;;;;;5016224;28;20128;-88
2022/09/20 03:28:52;;;;;;;4.07;0.68;;;7.20;99.90;;;;;;5031767;28;20523;-88
2022/09/20 03:31:40;;;;;;;6.97;2.15;;;7.20;99.90;;;;;;5015012;28;20060;-88
2022/09/20 03:34:46;;;;;;;3.95;0.90;;;7.10;99.90;;;;;;5014632;28;20057;-88
2022/09/20 03:37:24;;;;;;;7.90;0.70;;;7.10;99.90;;;;;;5009709;28;20488;-89
2022/09/20 03:40:11;;;;;;;5.13;0.88;;;7.10;99.90;;;;;;5030063;28;20052;-88
2022/09/20 03:42:48;;;;;;;4.40;1.30;;;7.10;99.90;;;;;;5014667;28;20099;-88
2022/09/20 03:45:24;;;;;;;7.13;0.65;;;7.10;99.90;;;;;;5013101;28;20037;-88
2022/09/20 03:48:11;;;;;;;2.47;0.50;;;7.50;99.90;;;;;;5014538;28;20132;-88
2022/09/20 03:51:05;;;;;;;6.55;1.15;;;7.00;99.90;;;;;;5014582;28;20551;-87
2022/09/20 03:53:54;;;;;;;5.22;0.82;;;7.00;99.90;;;;;;5012725;28;20488;-88
2022/09/20 03:56:27;;;;;;;3.13;0.85;;;8.10;99.90;;;;;;5013488;28;20057;-88
2022/09/20 03:59:20;;;;;;;2.83;0.80;;;7.70;99.90;;;;;;5030377;28;20535;-89
2022/09/20 04:02:32;;;;;;;1.70;0.60;;;7.00;99.90;;;;;;5013240;28;20088;-89
2022/09/20 04:05:04;;;;;;;3.40;0.77;;;7.10;99.90;;;;;;5013885;28;20297;-89
2022/09/20 04:07:49;;;;;;;4.53;0.75;;;7.80;99.90;;;;;;5013917;28;20103;-89
2022/09/20 04:10:52;;;;;;;5.18;0.98;;;7.10;99.90;;;;;;5013596;28;20423;-88
2022/09/20 04:13:18;;;;;;;;;;;7.40;99.90;;;;;;4991499;28;20140;-89
2022/09/20 04:16:26;;;;;;;11.00;0.82;;;7.20;99.90;;;;;;5029854;28;19975;-88
2022/09/20 04:19:19;;;;;;;6.78;0.93;;;7.20;99.90;;;;;;5029203;28;20048;-87
2022/09/20 04:21:55;;;;;;;7.45;1.05;;;7.20;99.90;;;;;;5013725;28;20048;-88
2022/09/20 04:24:45;;;;;;;6.88;0.80;;;7.20;99.90;;;;;;5013450;28;20049;-87
2022/09/20 04:27:29;;;;;;;6.07;1.00;;;7.20;99.90;;;;;;5015467;28;20049;-96
2022/09/20 04:30:17;;;;;;;8.73;1.40;;;7.20;99.90;;;;;;5018314;28;20128;-96
2022/09/20 04:33:19;;;;;;;3.65;0.95;;;7.20;99.90;;;;;;5015005;28;20442;-96
2022/09/20 04:39:16;;;;;;;4.72;1.00;;;7.20;99.90;;;;;;5036088;28;20037;-97
2022/09/20 04:42:04;;;;;;;8.48;0.80;;;7.20;99.90;;;;;;5009614;28;20098;-96
2022/09/20 04:45:11;;;;;;;2.70;0.88;;;7.20;99.90;;;;;;5021226;28;20045;-96
2022/09/20 04:48:05;;;;;;;9.05;1.27;;;7.20;99.90;;;;;;5020980;28;20114;-96
2022/09/20 04:50:49;;;;;;;4.88;0.85;;;7.20;99.90;;;;;;5032226;28;20044;-92
2022/09/20 04:53:32;;;;;;;7.28;1.00;;;7.10;99.90;;;;;;5017956;28;20041;-96
2022/09/20 04:56:27;;;;;;;2.47;0.60;;;7.10;99.90;;;;;;5014598;28;20076;-92
2022/09/20 04:58:56;;;;;;;4.88;0.98;;;7.10;99.90;;;;;;5013000;28;20150;-94
2022/09/20 05:01:43;;;;;;;5.90;0.68;;;7.10;99.90;;;;;;5015109;28;20063;-93
2022/09/20 05:04:32;;;;;;;5.75;0.82;;;7.10;99.90;;;;;;5014543;28;20399;-92
2022/09/20 05:07:12;;;;;;;4.47;1.02;;;7.10;99.90;;;;;;5033033;28;20057;-96
2022/09/20 05:10:16;;;;;;;8.20;1.33;;;7.20;99.90;;;;;;5015366;28;20134;-89
2022/09/20 05:12:47;;;;;;;13.75;1.27;;;7.30;99.90;;;;;;5011748;28;20049;-89
2022/09/20 05:15:35;;;;;;;14.18;1.63;;;7.50;99.90;;;;;;5012585;28;20041;-90
2022/09/20 05:18:38;;;;;;;3.53;1.35;;;7.70;99.90;;;;;;5013916;28;20048;-90
2022/09/20 05:21:19;;;;;;;1.35;0.75;;;7.80;99.90;;;;;;5011858;28;20114;-89
2022/09/20 05:23:50;;;;;;;7.43;1.42;;;7.90;99.90;;;;;;5012903;28;20045;-89
2022/09/20 05:26:19;;;;;;;16.60;1.70;;;8.70;99.90;;;;;;5030744;28;20047;-90
2022/09/20 05:29:35;;;;;;;8.73;2.20;;;8.20;99.90;;;;;;5011894;28;20045;-89
2022/09/20 05:32:05;;;;;;;8.93;1.27;;;8.40;99.90;;;;;;5029124;28;20503;-90
2022/09/20 05:34:58;;;;;;;7.30;1.38;;;8.50;99.90;;;;;;5013390;28;20053;-90
2022/09/20 05:37:51;;;;;;;11.25;1.38;;;8.70;99.90;;;;;;5011906;28;20076;-90
2022/09/20 05:40:38;;;;;;;9.38;1.02;;;8.80;99.90;;;;;;5013211;28;20051;-89
2022/09/20 05:43:12;;;;;;;5.85;1.20;;;9.40;99.90;;;;;;5013344;28;20487;-89
2022/09/20 05:46:03;;;;;;;2.08;0.68;;;9.00;99.90;;;;;;5027906;28;20052;-90
2022/09/20 05:48:45;;;;;;;14.65;1.25;;;9.00;99.90;;;;;;5013588;28;20447;-90
2022/09/20 05:51:20;;;;;;;5.82;1.30;;;9.10;99.90;;;;;;5013109;28;20045;-89
2022/09/20 05:53:57;;;;;;;4.78;0.70;;;9.10;99.90;;;;;;5012586;28;20543;-90
2022/09/20 05:56:36;;;;;;;4.50;0.80;;;9.10;99.90;;;;;;5032622;28;20484;-89
2022/09/20 05:59:27;;;;;;;8.20;0.98;;;9.10;99.90;;;;;;5016586;28;20045;-90
2022/09/20 06:02:09;;;;;;;9.88;1.20;;;9.10;99.90;;;;;;5016946;28;20388;-90
2022/09/20 06:04:45;;;;;;;10.32;1.10;;;9.10;99.90;;;;;;5016756;28;20039;-90
2022/09/20 06:07:31;;;;;;;9.60;1.17;;;9.10;99.90;;;;;;5015224;28;20095;-90
2022/09/20 06:10:19;;;;;;;3.83;0.90;;;9.80;99.90;;;;;;5016891;28;20044;-90
2022/09/20 06:13:07;;;;;;;5.18;0.98;;;9.20;99.90;;;;;;5015747;28;20488;-90
2022/09/20 06:16:12;;;;;;;5.55;1.02;;;9.30;99.90;;;;;;5015906;28;20523;-90
2022/09/20 06:18:59;;;;;;;7.53;1.00;;;9.70;99.90;;;;;;4957138;28;20056;-90
2022/09/20 06:21:45;;;;;;;5.30;0.73;;;9.70;99.90;;;;;;5013729;28;20053;-90
2022/09/20 06:24:23;;;;;;;3.63;0.70;;;9.70;99.90;;;;;;5014826;28;20037;-90
2022/09/20 06:26:51;;;;;;;8.82;0.95;;;9.90;99.90;;;;;;5017465;28;20041;-90
2022/09/20 06:29:22;;;;;;;4.50;1.27;;;10.00;99.90;;;;;;5015329;28;20167;-91
2022/09/20 06:31:48;;;;;;;10.57;0.77;;;10.20;99.90;;;;;;5033532;28;20131;-92
2022/09/20 06:34:17;;;;;;;2.95;0.40;;;10.70;99.90;;;;;;4976657;28;20526;-91
2022/09/20 06:42:35;;;;;;;4.50;1.63;;;10.70;99.90;;;;;;5009204;28;20056;-91
2022/09/20 06:45:00;;;;;;;4.97;0.80;;;10.70;99.90;;;;;;4992963;28;20046;-91
2022/09/20 06:47:26;;;;;;;5.43;0.50;;;11.00;99.90;;;;;;4993816;28;20038;-91
2022/09/20 06:49:52;;;;;;;4.85;0.55;;;10.70;99.90;;;;;;4977326;28;20165;-90
2022/09/20 06:52:21;;;;;;;5.07;0.75;;;10.70;99.90;;;;;;4997272;28;20034;-91
2022/09/20 06:54:52;;;;;;;4.13;0.90;;;10.80;99.90;;;;;;5002942;28;20049;-90
2022/09/20 06:57:35;;;;;;;2.15;0.70;;;10.80;99.90;;;;;;5004043;28;20060;-91
2022/09/20 07:00:01;;;;;;;12.43;2.10;;;10.80;99.90;;;;;;5002859;28;20084;-92
2022/09/20 07:02:27;;;;;;;10.07;1.08;;;10.80;99.90;;;;;;4989454;28;20077;-91
2022/09/20 07:04:54;;;;;;;8.73;1.08;;;10.90;99.90;;;;;;4999734;28;20053;-91
2022/09/20 07:07:20;;;;;;;6.13;0.57;;;10.90;99.90;;;;;;4981342;28;20054;-91
2022/09/20 07:09:46;;;;;;;3.70;0.65;;;11.00;99.90;;;;;;5000477;28;20045;-91
2022/09/20 07:12:12;;;;;;;3.60;0.52;;;11.00;99.90;;;;;;4996999;28;20456;-90
2022/09/20 07:14:38;;;;;;;4.38;1.13;;;11.00;99.90;;;;;;4977162;28;20053;-90
2022/09/20 07:17:05;;;;;;;4.20;0.75;;;11.00;99.90;;;;;;4992695;28;20046;-91
2022/09/20 07:19:30;;;;;;;5.40;1.05;;;11.00;99.90;;;;;;4992518;28;20457;-92
2022/09/20 07:21:56;;;;;;;4.70;0.70;;;11.00;99.90;;;;;;4992826;28;20132;-90
2022/09/20 07:24:22;;;;;;;9.43;1.45;;;12.00;99.90;;;;;;4975546;28;20038;-90
2022/09/20 07:27:17;;;;;;;4.47;0.93;;;11.20;99.90;;;;;;4976700;28;20481;-90
2022/09/20 07:29:42;;;;;;;4.68;0.90;;;11.10;99.90;;;;;;4979410;28;20057;-91
2022/09/20 07:32:08;;;;;;;5.22;0.70;;;12.00;99.90;;;;;;4992498;28;20048;-91
2022/09/20 07:34:34;;;;;;;5.70;1.05;;;11.20;99.90;;;;;;4995578;28;20045;-91
2022/09/20 07:37:00;;;;;;;3.33;0.80;;;11.40;99.90;;;;;;4994780;28;20136;-90
2022/09/20 07:39:26;;;;;;;3.45;1.00;;;11.30;99.90;;;;;;4979930;28;20527;-91
2022/09/20 07:41:51;;;;;;;9.23;1.35;;;11.40;99.90;;;;;;4994209;28;20048;-91
2022/09/20 07:44:23;;;;;;;11.20;2.40;;;12.40;99.90;;;;;;4995689;28;20042;-91
2022/09/20 07:46:53;;;;;;;4.38;1.15;;;11.80;99.90;;;;;;4994945;28;20049;-91
2022/09/20 07:49:20;;;;;;;3.67;1.20;;;11.80;99.90;;;;;;5028421;28;20087;-90
2022/09/20 07:51:47;;;;;;;3.75;0.70;;;13.10;99.90;;;;;;4996873;28;20046;-91
2022/09/20 07:54:13;;;;;;;9.27;1.05;;;12.10;99.90;;;;;;4999445;28;20053;-91
2022/09/20 07:56:39;;;;;;;7.65;0.65;;;13.40;99.90;;;;;;5022093;28;20041;-91
2022/09/20 07:59:05;;;;;;;3.65;0.65;;;12.50;99.90;;;;;;5003371;28;20042;-90
2022/09/20 08:01:30;;;;;;;3.08;0.77;;;12.70;99.90;;;;;;4998916;28;20045;-90
2022/09/20 08:03:56;;;;;;;4.28;0.60;;;12.90;99.90;;;;;;4978527;28;20493;-90
2022/09/20 08:06:22;;;;;;;2.50;0.57;;;13.10;99.90;;;;;;4979370;28;20047;-90
2022/09/20 08:08:50;;;;;;;4.80;0.50;;;14.10;99.90;;;;;;4994900;28;20041;-90
2022/09/20 08:11:24;;;;;;;2.05;0.93;;;13.50;99.90;;;;;;5026178;28;20045;-90
2022/09/20 08:13:54;;;;;;;2.70;0.47;;;13.80;99.90;;;;;;5011590;28;20081;-90
2022/09/20 08:16:20;;;;;;;8.38;0.82;;;14.00;99.90;;;;;;5009894;28;20046;-90
2022/09/20 08:18:48;;;;;;;3.67;0.40;;;14.20;99.90;;;;;;5010620;28;20081;-90
2022/09/20 08:21:14;;;;;;;4.38;0.40;;;14.40;99.90;;;;;;5026107;28;20528;-90
2022/09/20 08:23:42;;;;;;;4.63;0.75;;;14.50;99.90;;;;;;4977496;28;20103;-90
2022/09/20 08:26:11;;;;;;;7.60;0.60;;;15.40;99.90;;;;;;5011067;28;20049;-90
2022/09/20 08:28:38;;;;;;;4.93;0.63;;;14.50;99.90;;;;;;5025765;28;20056;-89
2022/09/20 08:31:06;;;;;;;4.70;0.60;;;14.60;99.90;;;;;;4994629;28;20064;-90
2022/09/20 08:33:35;;;;;;;4.85;0.57;;;14.70;99.90;;;;;;5009567;28;20131;-90
2022/09/20 08:36:01;;;;;;;2.85;0.73;;;14.80;99.90;;;;;;4978698;28;20113;-89
2022/09/20 08:38:27;;;;;;;5.05;0.80;;;15.00;99.90;;;;;;4993448;28;20050;-90
2022/09/20 08:41:01;;;;;;;6.45;0.57;;;15.20;99.90;;;;;;5010665;28;20049;-89
2022/09/20 08:43:31;;;;;;;5.18;0.70;;;15.30;99.90;;;;;;5011266;28;20046;-89
2022/09/20 08:45:59;;;;;;;1.75;0.30;;;15.40;99.90;;;;;;5009618;28;20057;-90
2022/09/20 08:48:32;;;;;;;3.55;0.30;;;15.40;99.90;;;;;;5027036;28;20080;-90
2022/09/20 08:50:58;;;;;;;3.95;0.43;;;15.80;99.90;;;;;;5009059;28;20571;-90
2022/09/20 08:53:27;;;;;;;1.50;0.40;;;15.10;99.90;;;;;;5010078;28;20045;-90
2022/09/20 08:55:56;;;;;;;1.95;0.30;;;15.00;99.90;;;;;;4994631;28;20489;-89
2022/09/20 08:58:22;;;;;;;2.90;0.40;;;14.90;99.90;;;;;;5010064;28;20448;-89
2022/09/20 09:00:48;;;;;;;2.97;0.47;;;14.90;99.90;;;;;;4994390;28;20056;-89
2022/09/20 09:03:16;;;;;;;3.47;0.32;;;15.00;99.90;;;;;;4992886;28;20037;-89
2022/09/20 09:05:53;;;;;;;1.77;0.30;;;15.90;99.90;;;;;;4994387;28;20392;-89
2022/09/20 09:08:34;;;;;;;1.63;0.22;;;15.30;99.90;;;;;;5009527;28;20041;-89
2022/09/20 09:11:14;;;;;;;4.22;0.68;;;15.40;99.90;;;;;;5010038;28;20198;-89
2022/09/20 09:14:46;;;;;;;4.90;0.40;;;15.50;99.90;;;;;;5028246;28;20045;-89
2022/09/20 09:16:52;;;;;;;1.40;0.13;;;15.70;99.90;;;;;;5028150;28;20053;-88
2022/09/20 09:19:31;;;;;;;2.05;0.68;;;15.90;99.90;;;;;;5013461;28;20150;-89
2022/09/20 09:22:03;;;;;;;4.63;0.30;;;16.10;99.90;;;;;;5039270;28;20072;-90
2022/09/20 09:24:30;;;;;;;2.60;0.30;;;16.30;99.90;;;;;;5033479;28;20080;-89
2022/09/20 09:27:06;;;;;;;2.67;0.20;;;16.40;99.90;;;;;;5019264;28;20034;-88
2022/09/20 09:29:33;;;;;;;7.03;0.60;;;15.60;99.90;;;;;;5034932;28;20030;-89
2022/09/20 09:32:22;;;;;;;14.35;2.15;;;16.40;99.90;;;;;;5022480;28;20033;-89
2022/09/20 09:34:48;;;;;;;3.80;0.47;;;16.50;99.90;;;;;;5038761;28;20049;-89
2022/09/20 09:37:30;;;;;;;7.57;1.15;;;16.50;99.90;;;;;;5021171;28;20026;-89
2022/09/20 09:40:17;;;;;;;3.33;0.40;;;16.50;99.90;;;;;;5038385;28;20040;-89
2022/09/20 09:43:00;;;;;;;3.45;1.08;;;16.50;99.90;;;;;;5038032;28;20044;-89
2022/09/20 09:45:37;;;;;;;3.03;0.70;;;16.50;99.90;;;;;;5037015;28;20030;-89
2022/09/20 09:48:19;;;;;;;5.35;0.40;;;16.50;99.90;;;;;;5032164;28;20052;-90
2022/09/20 09:50:44;;;;;;;3.22;0.80;;;16.50;99.90;;;;;;5022792;28;20057;-89
2022/09/20 09:53:14;;;;;;;9.52;0.68;;;16.50;99.90;;;;;;5007952;28;20037;-90
2022/09/20 09:55:57;;;;;;;4.75;0.43;;;16.50;99.90;;;;;;5014798;28;20444;-89
2022/09/20 09:58:32;;;;;;;;;;;16.60;99.90;;;;;;5013377;28;20390;-90
2022/09/20 10:01:01;;;;;;;4.57;0.40;;;16.50;99.90;;;;;;5014663;28;19921;-90
2022/09/20 10:03:56;;;;;;;5.15;0.60;;;16.60;99.90;;;;;;5013216;28;20104;-90
2022/09/20 10:06:32;;;;;;;3.85;0.60;;;16.60;99.90;;;;;;5010353;28;20089;-90
2022/09/20 10:09:00;;;;;;;3.47;0.73;;;16.60;99.90;;;;;;5018182;28;20049;-90
2022/09/20 10:11:29;;;;;;;3.38;0.52;;;16.70;99.90;;;;;;5016558;28;20041;-90
2022/09/20 10:14:28;;;;;;;3.97;0.50;;;16.70;99.90;;;;;;5017368;28;20053;-90
2022/09/20 10:17:28;;;;;;;6.93;0.80;;;16.70;99.90;;;;;;5015435;28;20053;-90
2022/09/20 10:20:19;;;;;;;4.70;0.85;;;16.70;99.90;;;;;;5015603;28;20109;-90
2022/09/20 10:23:03;;;;;;;1.83;0.50;;;16.70;99.90;;;;;;5017320;28;20045;-89
2022/09/20 10:25:48;;;;;;;2.10;0.40;;;16.90;99.90;;;;;;5015573;28;20489;-86
2022/09/20 10:28:47;;;;;;;3.67;0.70;;;17.00;99.90;;;;;;5016004;28;20041;-87
2022/09/20 10:31:42;;;;;;;10.05;0.77;;;17.70;99.90;;;;;;5016957;28;20436;-89
2022/09/20 10:34:07;;;;;;;3.88;0.68;;;17.20;99.90;;;;;;5015794;28;20050;-89
2022/09/20 10:36:47;;;;;;;6.85;1.23;;;17.30;99.90;;;;;;5032746;28;20084;-88
2022/09/20 10:39:20;;;;;;;2.58;0.43;;;17.30;99.90;;;;;;5032977;28;20045;-88
2022/09/20 10:45:05;;;;;;;;;;;17.20;99.90;;;;;;5029633;28;20049;-88
2022/09/20 10:47:47;;;;;;;4.28;0.55;;;17.00;99.90;;;;;;5015957;28;19935;-87
2022/09/20 10:50:20;;;;;;;8.57;0.70;;;17.40;99.90;;;;;;5015524;28;20091;-88
2022/09/20 10:53:09;;;;;;;5.18;1.10;;;17.40;99.90;;;;;;5032090;28;20080;-88
2022/09/20 10:56:00;;;;;;;6.93;0.60;;;17.50;99.90;;;;;;5015110;28;20053;-88
2022/09/20 10:58:55;;;;;;;5.63;0.80;;;17.50;99.90;;;;;;5015443;28;20393;-88
2022/09/20 11:01:33;;;;;;;6.80;1.00;;;17.40;99.90;;;;;;5011956;28;20217;-88
2022/09/20 11:04:23;;;;;;;5.57;0.60;;;17.40;99.90;;;;;;5015095;28;20492;-89
2022/09/20 11:07:02;;;;;;;5.32;0.60;;;17.30;99.90;;;;;;5015385;28;20050;-88
2022/09/20 11:09:37;;;;;;;6.35;1.25;;;17.30;99.90;;;;;;5032318;28;20072;-88
2022/09/20 11:12:03;;;;;;;7.38;0.60;;;17.50;99.90;;;;;;5031831;28;20042;-88
2022/09/20 11:14:42;;;;;;;5.68;0.70;;;17.60;99.90;;;;;;5015443;28;20075;-89
2022/09/20 11:17:25;;;;;;;3.33;0.47;;;17.60;99.90;;;;;;5015363;28;20045;-88
2022/09/20 11:20:06;;;;;;;2.60;0.43;;;17.50;99.90;;;;;;5031646;28;20124;-87
2022/09/20 11:22:55;;;;;;;3.70;0.70;;;17.50;99.90;;;;;;5031877;28;20103;-88
2022/09/20 11:25:50;;;;;;;5.22;0.60;;;17.30;99.90;;;;;;5014470;28;20064;-88
2022/09/20 11:28:32;;;;;;;9.45;1.17;;;17.60;99.90;;;;;;5015505;28;20072;-89
2022/09/20 11:31:04;;;;;;;3.42;0.60;;;17.80;99.90;;;;;;5032193;28;20042;-88
2022/09/20 11:33:41;;;;;;;6.38;0.95;;;18.10;99.90;;;;;;5039486;28;20053;-88
2022/09/20 11:36:16;;;;;;;7.03;0.50;;;18.30;99.90;;;;;;5018172;28;20045;-87
2022/09/20 11:39:00;;;;;;;3.85;0.40;;;18.60;99.90;;;;;;5018940;28;20045;-87
2022/09/20 11:41:30;;;;;;;6.88;0.50;;;18.80;99.90;;;;;;5039562;28;20044;-87
2022/09/20 11:44:06;;;;;;;7.50;0.70;;;18.90;99.90;;;;;;5021134;28;20041;-89
2022/09/20 11:46:52;;;;;;;4.55;1.17;;;18.80;99.90;;;;;;5018614;28;20094;-89
2022/09/20 11:49:36;;;;;;;5.20;0.70;;;18.50;99.90;;;;;;5018574;28;20091;-90
2022/09/20 11:52:12;;;;;;;4.60;0.40;;;18.20;99.90;;;;;;5019939;28;20427;-90
2022/09/20 11:54:38;;;;;;;7.35;0.95;;;18.20;99.90;;;;;;5017947;28;20045;-89
2022/09/20 11:57:06;;;;;;;6.03;1.23;;;18.20;99.90;;;;;;5035655;28;20076;-87
2022/09/20 11:59:36;;;;;;;6.43;0.68;;;18.10;99.90;;;;;;5004189;28;20045;-88
2022/09/20 12:02:12;;;;;;;7.32;0.68;;;17.90;99.90;;;;;;5025322;28;20168;-88
2022/09/20 12:04:44;;;;;;;4.57;0.60;;;17.70;99.90;;;;;;5042360;28;20045;-87
2022/09/20 12:07:30;;;;;;;2.55;0.50;;;17.50;99.90;;;;;;5022449;28;20068;-88
2022/09/20 12:10:00;;;;;;;2.17;0.40;;;17.30;99.90;;;;;;5037229;28;20041;-89
2022/09/20 12:12:35;;;;;;;3.08;0.80;;;17.10;99.90;;;;;;5021572;28;20080;-87
2022/09/20 12:15:06;;;;;;;4.88;0.80;;;17.00;99.90;;;;;;5023373;28;20067;-88
2022/09/20 12:17:44;;;;;;;3.10;0.68;;;16.90;99.90;;;;;;5024005;28;20049;-88
2022/09/20 12:20:37;;;;;;;6.70;1.45;;;16.90;99.90;;;;;;5017611;28;20049;-89
2022/09/20 12:23:37;;;;;;;4.68;0.57;;;16.80;99.90;;;;;;5016760;28;20051;-88
2022/09/20 12:26:22;;;;;;;3.80;0.50;;;16.90;99.90;;;;;;5018189;28;20052;-87
2022/09/20 12:28:51;;;;;;;7.88;0.75;;;17.00;99.90;;;;;;5017626;28;20056;-88
2022/09/20 12:31:32;;;;;;;3.22;0.45;;;17.20;99.90;;;;;;5017549;28;20037;-88
2022/09/20 12:34:10;;;;;;;2.58;0.50;;;17.40;99.90;;;;;;5015810;28;20081;-88
2022/09/20 12:37:00;;;;;;;6.63;0.55;;;17.80;99.90;;;;;;5016196;28;20508;-87
2022/09/20 12:39:31;;;;;;;4.60;0.70;;;18.10;99.90;;;;;;5007726;28;20052;-88
2022/09/20 12:42:00;;;;;;;3.67;0.52;;;18.40;99.90;;;;;;5016609;28;20056;-88
2022/09/20 12:44:48;;;;;;;2.90;0.70;;;18.60;99.90;;;;;;5033653;28;20452;-87
2022/09/20 12:47:21;;;;;;;3.00;0.38;;;18.80;99.90;;;;;;5017767;28;20139;-87
2022/09/20 12:52:49;;;;;;;6.45;0.70;;;18.90;99.90;;;;;;5033787;28;20045;-88
2022/09/20 12:55:50;;;;;;;3.80;0.50;;;19.00;99.90;;;;;;5033525;28;20132;-88
2022/09/20 12:58:35;;;;;;;4.50;0.85;;;19.10;99.90;;;;;;5033986;28;20082;-88
2022/09/20 13:01:04;;;;;;;3.88;0.50;;;19.10;99.90;;;;;;5017686;28;20045;-87
2022/09/20 13:03:47;;;;;;;1.95;0.40;;;19.10;99.90;;;;;;5019370;28;20104;-88
2022/09/20 13:06:19;;;;;;;2.75;0.57;;;19.20;99.90;;;;;;5036361;28;20048;-88
2022/09/20 13:09:00;;;;;;;3.60;0.40;;;19.20;99.90;;;;;;5023484;28;20073;-88
2022/09/20 13:11:47;;;;;;;7.10;0.85;;;19.40;99.90;;;;;;5017589;28;20327;-88
2022/09/20 13:14:22;;;;;;;9.15;1.00;;;19.60;99.90;;;;;;5032785;28;20107;-88
2022/09/20 13:17:12;;;;;;;4.00;0.50;;;19.70;99.90;;;;;;5033206;28;20045;-88
2022/09/20 13:19:45;;;;;;;6.18;0.77;;;19.60;99.90;;;;;;5017005;28;20060;-87
2022/09/20 13:22:31;;;;;;;5.25;0.68;;;19.40;99.90;;;;;;5017823;28;20048;-86
2022/09/20 13:25:01;;;;;;;7.45;0.65;;;19.30;99.90;;;;;;5033307;28;20091;-87
2022/09/20 13:27:39;;;;;;;6.47;0.90;;;19.20;99.90;;;;;;5017440;28;20039;-88
2022/09/20 13:30:25;;;;;;;5.72;1.08;;;19.20;99.90;;;;;;5017303;28;20075;-87
2022/09/20 13:32:52;;;;;;;9.43;0.88;;;19.40;99.90;;;;;;5032380;28;20049;-88
2022/09/20 13:35:22;;;;;;;2.40;0.50;;;19.40;99.90;;;;;;5002902;28;20045;-88
2022/09/20 13:38:01;;;;;;;2.03;0.30;;;19.30;99.90;;;;;;5020405;28;20106;-88
2022/09/20 13:40:48;;;;;;;2.75;0.40;;;19.20;99.90;;;;;;5020134;28;20064;-88
2022/09/20 13:43:40;;;;;;;6.05;0.50;;;19.10;99.90;;;;;;5006367;28;20060;-88
2022/09/20 13:46:07;;;;;;;4.22;0.57;;;19.00;99.90;;;;;;5020985;28;20321;-87
2022/09/20 13:48:34;;;;;;;4.03;0.47;;;18.80;99.90;;;;;;5038048;28;20047;-88
2022/09/20 13:51:01;;;;;;;3.80;0.40;;;18.70;99.90;;;;;;4999471;28;20116;-89
2022/09/20 13:53:29;;;;;;;2.42;0.50;;;18.60;99.90;;;;;;5013559;28;20520;-89
2022/09/20 13:55:55;;;;;;;6.65;0.80;;;18.40;99.90;;;;;;5015769;28;20036;-89
2022/09/20 13:58:47;;;;;;;3.13;0.40;;;18.30;99.90;;;;;;5006553;28;20074;-89
2022/09/20 14:01:53;;;;;;;1.63;0.30;;;18.20;99.90;;;;;;5034179;28;20049;-88